Time;durP1;ratioP1;P1;durP2;ratioP2;P2;SDS_P1;SDS_P2;PMS_P1;PMS_P2;Temp;Humidity;BMP_temperature;BMP_pressure;BME280_temperature;BME280_humidity;BME280_pressure;Samples;Min_cycle;Max_cycle;Signal;HPM_P1;HPM_P2
2023/06/19 00:01:27;;;;;;;4.43;2.60;;;;;;;20.80;100.00;100304.19;4988733;28;20088;-72
2023/06/19 00:03:53;;;;;;;6.28;2.72;;;;;;;20.89;100.00;100323.38;4986971;28;20049;-72
2023/06/19 00:06:18;;;;;;;3.47;2.03;;;;;;;20.85;100.00;100335.97;4987140;28;20030;-72
2023/06/19 00:08:44;;;;;;;4.20;2.63;;;;;;;20.16;100.00;100201.19;4987195;28;20446;-72
2023/06/19 00:11:09;;;;;;;3.33;2.33;;;;;;;20.30;100.00;100247.69;4987345;28;20034;-72
2023/06/19 00:13:35;;;;;;;2.47;1.73;;;;;;;20.60;100.00;100288.19;4987227;28;20394;-72
2023/06/19 00:16:01;;;;;;;2.65;1.60;;;;;;;20.78;100.00;100308.72;4986999;28;20038;-73
2023/06/19 00:18:27;;;;;;;4.18;2.03;;;;;;;20.86;100.00;100329.69;4986264;28;20505;-73
2023/06/19 00:20:55;;;;;;;2.80;1.73;;;;;;;20.96;100.00;100308.84;4991095;28;20465;-72
2023/06/19 00:23:22;;;;;;;3.63;2.05;;;;;;;20.06;100.00;100175.88;4989828;28;20038;-72
2023/06/19 00:25:47;;;;;;;3.80;1.95;;;;;;;20.57;100.00;100270.50;4989799;28;20041;-72
2023/06/19 00:28:14;;;;;;;2.80;1.45;;;;;;;20.89;100.00;100316.25;4976195;28;20030;-71
2023/06/19 00:30:44;;;;;;;3.10;2.20;;;;;;;20.44;100.00;100216.84;4971473;28;20467;-72
2023/06/19 00:33:10;;;;;;;3.20;1.73;;;;;;;20.35;100.00;100197.75;5002283;28;20042;-73
2023/06/19 00:35:35;;;;;;;9.30;3.72;;;;;;;20.68;100.00;100255.88;4973997;28;20124;-73
2023/06/19 00:38:01;;;;;;;3.90;1.73;;;;;;;20.89;100.00;100318.91;4987293;28;20461;-72
2023/06/19 00:40:28;;;;;;;3.58;2.53;;;;;;;20.27;100.00;100235.34;4989554;28;20026;-72
2023/06/19 00:42:54;;;;;;;3.47;1.77;;;;;;;20.71;100.00;100315.25;4989197;28;20045;-73
2023/06/19 00:45:20;;;;;;;6.82;1.90;;;;;;;20.42;100.00;100293.34;4989131;28;20383;-72
2023/06/19 00:47:45;;;;;;;5.53;2.72;;;;;;;19.74;100.00;100215.41;4990427;28;20038;-72
2023/06/19 00:50:11;;;;;;;4.30;2.05;;;;;;;19.99;100.00;100321.78;4989849;28;20045;-73
2023/06/19 00:52:37;;;;;;;3.90;2.47;;;;;;;19.29;100.00;100226.94;4990644;28;20038;-73
2023/06/19 00:55:05;;;;;;;4.63;2.20;;;;;;;19.27;100.00;100234.09;4990312;28;20597;-73
2023/06/19 00:57:31;;;;;;;4.85;2.47;;;;;;;19.48;100.00;100274.97;4990791;28;20034;-72
2023/06/19 00:59:58;;;;;;;8.27;3.30;;;;;;;19.39;100.00;100257.56;4990608;28;20026;-74
2023/06/19 01:02:24;;;;;;;8.20;2.45;;;;;;;19.71;100.00;100337.97;4988961;28;20546;-73
2023/06/19 01:04:51;;;;;;;5.22;2.45;;;;;;;19.39;100.00;100281.50;4990767;28;20034;-72
2023/06/19 01:07:29;;;;;;;6.72;2.88;;;;;;;19.63;100.00;100337.38;4990954;28;20057;-72
2023/06/19 01:10:01;;;;;;;5.75;2.50;;;;;;;19.47;100.00;100307.81;4990229;28;20045;-73
2023/06/19 01:13:01;;;;;;;3.20;2.03;;;;;;;19.76;100.00;100353.75;4990733;28;20135;-73
2023/06/19 01:15:27;;;;;;;4.30;2.58;;;;;;;19.81;100.00;100381.09;4991344;28;20037;-72
2023/06/19 01:17:55;;;;;;;4.18;2.38;;;;;;;19.86;100.00;100381.78;4990324;28;20030;-72
2023/06/19 01:20:20;;;;;;;5.25;2.92;;;;;;;19.26;100.00;100293.53;4989812;28;20038;-73
2023/06/19 01:22:46;;;;;;;4.45;2.80;;;;;;;19.71;100.00;100372.56;4989572;28;20853;-72
2023/06/19 01:25:15;;;;;;;4.65;2.80;;;;;;;19.70;100.00;100375.31;4988710;28;20466;-72
2023/06/19 01:27:44;;;;;;;3.42;2.28;;;;;;;19.80;100.00;100403.31;4990114;28;20034;-73
2023/06/19 01:30:12;;;;;;;3.97;2.65;;;;;;;19.35;100.00;100308.28;4988723;28;20038;-72
2023/06/19 01:32:46;;;;;;;4.63;1.80;;;;;;;19.80;100.00;100400.66;4989976;28;20034;-72
2023/06/19 01:35:13;;;;;;;4.57;2.13;;;;;;;19.99;100.00;100385.72;4991670;28;20056;-72
2023/06/19 01:37:41;;;;;;;3.85;2.38;;;;;;;20.05;100.00;100375.75;4990455;28;20034;-72
2023/06/19 01:40:09;;;;;;;2.70;1.40;;;;;;;19.88;100.00;100363.06;4990435;28;20030;-72
2023/06/19 01:42:37;;;;;;;3.85;2.47;;;;;;;19.65;100.00;100351.50;4989901;28;20129;-72
2023/06/19 01:45:04;;;;;;;3.45;1.98;;;;;;;18.83;100.00;100196.75;4990280;28;20052;-72
2023/06/19 01:47:30;;;;;;;3.60;2.25;;;;;;;19.21;100.00;100289.31;4989822;28;20038;-73
2023/06/19 01:49:55;;;;;;;10.70;2.35;;;;;;;19.28;100.00;100298.81;4989516;28;20631;-72
2023/06/19 01:52:21;;;;;;;4.45;2.15;;;;;;;19.82;100.00;100396.13;4989807;28;20490;-72
2023/06/19 01:54:46;;;;;;;5.32;1.88;;;;;;;19.49;100.00;100371.66;4988140;28;20041;-73
2023/06/19 01:57:12;;;;;;;2.88;1.85;;;;;;;19.67;100.00;100389.59;4989741;28;20058;-72
2023/06/19 01:59:38;;;;;;;3.70;2.60;;;;;;;19.64;100.00;100351.56;4989564;28;20380;-72
2023/06/19 02:02:04;;;;;;;2.28;1.88;;;;;;;19.75;100.00;100379.53;4989723;28;20041;-72
2023/06/19 02:04:31;;;;;;;3.33;1.25;;;;;;;19.67;100.00;100357.63;4989806;28;20493;-72
2023/06/19 02:06:56;;;;;;;2.85;1.75;;;;;;;19.49;100.00;100359.19;4990173;28;20031;-72
2023/06/19 02:09:22;;;;;;;2.08;1.00;;;;;;;19.69;100.00;100384.22;4989432;28;20085;-72
2023/06/19 02:11:47;;;;;;;4.45;1.92;;;;;;;19.21;100.00;100273.38;4989233;28;20030;-72
2023/06/19 02:14:14;;;;;;;4.30;1.77;;;;;;;19.69;100.00;100363.81;4989703;28;20030;-72
2023/06/19 02:16:43;;;;;;;2.35;1.30;;;;;;;18.77;100.00;100248.34;4989354;28;20125;-72
2023/06/19 02:19:11;;;;;;;1.17;0.85;;;;;;;19.68;100.00;100391.34;4988262;28;20114;-74
2023/06/19 02:21:37;;;;;;;2.95;1.58;;;;;;;18.69;100.00;100202.56;4989681;28;20124;-73
2023/06/19 02:24:04;;;;;;;5.90;1.23;;;;;;;19.20;100.00;100328.38;4988871;28;20038;-73
2023/06/19 02:26:29;;;;;;;2.22;1.20;;;;;;;19.08;100.00;100283.59;4989142;28;20428;-73
2023/06/19 02:28:56;;;;;;;3.38;1.58;;;;;;;19.60;100.00;100377.44;4989391;28;20068;-73
2023/06/19 02:31:25;;;;;;;4.20;1.30;;;;;;;19.34;100.00;100367.78;4987690;28;20042;-73
2023/06/19 02:33:52;;;;;;;2.35;1.30;;;;;;;19.33;100.00;100364.22;4989187;28;20042;-73
2023/06/19 02:36:19;;;;;;;2.13;1.30;;;;;;;19.19;100.00;100364.72;4990317;28;20042;-72
2023/06/19 02:38:48;;;;;;;2.03;1.10;;;;;;;19.40;100.00;100402.13;4987620;28;20457;-73
2023/06/19 02:41:15;;;;;;;3.78;1.52;;;;;;;19.18;100.00;100383.41;4988510;28;20511;-72
2023/06/19 02:43:46;;;;;;;2.25;1.30;;;;;;;19.38;100.00;100410.16;4988717;28;20498;-73
2023/06/19 02:46:12;;;;;;;1.48;0.85;;;;;;;19.38;100.00;100414.59;4987201;28;20525;-73
2023/06/19 02:48:37;;;;;;;2.20;1.17;;;;;;;19.14;100.00;100390.63;4987891;28;20034;-73
2023/06/19 02:51:03;;;;;;;2.30;1.35;;;;;;;18.76;100.00;100341.44;4988772;28;20042;-73
2023/06/19 02:53:28;;;;;;;2.55;1.83;;;;;;;19.25;100.00;100397.38;4987229;28;20461;-73
2023/06/19 02:55:54;;;;;;;3.13;1.65;;;;;;;19.19;100.00;100401.97;4988326;28;20058;-73
2023/06/19 02:58:19;;;;;;;3.22;1.52;;;;;;;18.66;100.00;100277.09;4988271;28;20827;-73
2023/06/19 03:00:46;;;;;;;2.42;1.20;;;;;;;19.10;100.00;100375.69;4988300;28;20038;-73
2023/06/19 03:03:12;;;;;;;1.95;1.00;;;;;;;18.50;100.00;100290.06;4988183;28;20044;-72
2023/06/19 03:05:38;;;;;;;3.83;1.33;;;;;;;18.92;100.00;100363.94;4988170;28;20035;-73
2023/06/19 03:08:05;;;;;;;1.45;0.85;;;;;;;18.33;100.00;100271.16;4987615;28;20052;-72
2023/06/19 03:10:31;;;;;;;2.42;1.48;;;;;;;17.91;100.00;100208.84;4987721;28;20086;-72
2023/06/19 03:12:58;;;;;;;3.08;1.17;;;;;;;18.89;100.00;100387.09;4987435;28;20063;-72
2023/06/19 03:15:24;;;;;;;1.77;1.00;;;;;;;18.87;100.00;100343.72;4988096;28;20034;-73
2023/06/19 03:17:49;;;;;;;3.20;1.85;;;;;;;18.41;100.00;100279.75;4988164;28;20422;-72
2023/06/19 03:20:15;;;;;;;2.00;1.15;;;;;;;18.82;100.00;100349.22;4972108;28;20404;-72
2023/06/19 03:22:41;;;;;;;3.88;1.33;;;;;;;18.96;100.00;100362.03;4988089;28;20034;-72
2023/06/19 03:25:08;;;;;;;3.85;1.45;;;;;;;19.05;100.00;100366.16;4987923;28;20038;-72
2023/06/19 03:27:34;;;;;;;2.92;1.67;;;;;;;18.12;100.00;100204.59;4987729;28;20034;-72
2023/06/19 03:29:59;;;;;;;1.42;0.80;;;;;;;19.24;100.00;100369.00;4987677;28;20096;-73
2023/06/19 03:32:24;;;;;;;3.17;2.28;;;;;;;18.52;100.00;100274.94;4986285;28;20121;-73
2023/06/19 03:34:50;;;;;;;2.88;1.30;;;;;;;18.60;100.00;100271.13;4987069;28;20034;-72
2023/06/19 03:37:16;;;;;;;2.15;1.05;;;;;;;19.26;100.00;100362.72;4987761;28;20030;-72
2023/06/19 03:39:42;;;;;;;2.63;1.42;;;;;;;18.85;100.00;100287.13;4969861;28;20129;-72
2023/06/19 03:42:08;;;;;;;10.00;2.00;;;;;;;19.44;100.00;100387.78;4987269;28;20433;-73
2023/06/19 03:44:34;;;;;;;6.05;1.63;;;;;;;18.87;100.00;100277.25;4987215;28;20038;-73
2023/06/19 03:47:00;;;;;;;2.35;1.48;;;;;;;19.33;100.00;100360.69;4987827;28;20352;-73
2023/06/19 03:49:25;;;;;;;1.88;1.20;;;;;;;19.46;100.00;100366.44;4986923;28;20022;-72
2023/06/19 03:51:51;;;;;;;2.75;1.35;;;;;;;19.04;100.00;100296.16;4987194;28;20113;-73
2023/06/19 03:54:17;;;;;;;2.10;1.30;;;;;;;18.71;100.00;100237.94;4987157;28;20057;-73
2023/06/19 03:56:42;;;;;;;1.73;1.20;;;;;;;19.18;100.00;100316.91;4987310;28;20081;-72
2023/06/19 03:59:09;;;;;;;5.00;1.55;;;;;;;19.58;100.00;100380.16;4987238;28;20026;-72
2023/06/19 04:01:35;;;;;;;2.17;1.00;;;;;;;19.66;100.00;100374.53;4987361;28;20034;-73
2023/06/19 04:04:00;;;;;;;2.15;1.10;;;;;;;19.72;100.00;100382.31;4990570;28;20430;-73
2023/06/19 04:06:25;;;;;;;1.90;1.05;;;;;;;19.26;100.00;100306.84;4990303;28;20057;-72
2023/06/19 04:08:52;;;;;;;6.82;1.90;;;;;;;19.87;100.00;100407.47;4987187;28;20049;-72
2023/06/19 04:11:17;;;;;;;2.17;1.38;;;;;;;19.16;100.00;100297.47;4985882;28;20038;-73
2023/06/19 04:13:43;;;;;;;1.80;1.17;;;;;;;19.16;100.00;100285.03;4985467;28;20379;-73
2023/06/19 04:16:08;;;;;;;2.35;1.33;;;;;;;19.39;100.00;100316.09;4985853;28;20053;-73
2023/06/19 04:18:33;;;;;;;2.53;1.25;;;;;;;19.75;100.00;100368.00;4986520;28;20038;-72
2023/06/19 04:20:59;;;;;;;3.72;1.95;;;;;;;19.23;100.00;100301.66;4987804;28;20034;-72
2023/06/19 04:23:28;;;;;;;3.20;1.88;;;;;;;19.67;100.00;100389.59;4987182;28;20026;-72
2023/06/19 04:25:54;;;;;;;3.60;2.17;;;;;;;19.66;100.00;100371.00;5018694;28;20112;-72
2023/06/19 04:28:19;;;;;;;3.08;1.40;;;;;;;19.69;100.00;100390.44;4986884;28;20038;-73
2023/06/19 04:30:45;;;;;;;6.85;2.03;;;;;;;19.07;100.00;100319.09;4987317;28;20041;-73
2023/06/19 04:33:10;;;;;;;3.05;1.35;;;;;;;19.07;100.00;100319.09;4985543;28;20429;-72
2023/06/19 04:35:39;;;;;;;2.42;1.20;;;;;;;19.81;100.00;100405.06;4988131;28;20037;-73
2023/06/19 04:38:06;;;;;;;6.13;2.50;;;;;;;19.81;100.00;100418.38;4985262;28;20061;-72
2023/06/19 04:40:33;;;;;;;6.03;1.92;;;;;;;19.22;100.00;100325.63;4986911;28;20088;-72
2023/06/19 04:43:00;;;;;;;2.75;1.90;;;;;;;19.87;100.00;100411.94;4986859;28;20034;-73
2023/06/19 04:45:26;;;;;;;3.20;1.88;;;;;;;19.84;100.00;100426.25;4985425;28;20124;-72
2023/06/19 04:47:51;;;;;;;3.97;1.60;;;;;;;19.75;100.00;100418.59;4986288;28;20089;-72
2023/06/19 04:50:17;;;;;;;4.50;1.77;;;;;;;19.54;100.00;100401.59;4986403;28;20212;-73
2023/06/19 04:52:43;;;;;;;3.10;1.80;;;;;;;19.83;100.00;100429.84;4985393;28;20036;-73
2023/06/19 04:55:11;;;;;;;3.28;2.00;;;;;;;19.28;100.00;100323.63;4986936;28;20054;-73
2023/06/19 04:57:39;;;;;;;4.00;2.13;;;;;;;18.94;100.00;100263.72;4987175;28;20058;-73
2023/06/19 05:00:06;;;;;;;5.18;3.25;;;;;;;19.17;100.00;100315.16;4986448;28;20045;-73
2023/06/19 05:02:33;;;;;;;3.78;1.92;;;;;;;19.32;100.00;100340.34;4986627;28;20043;-73
2023/06/19 05:05:02;;;;;;;5.07;2.50;;;;;;;19.95;100.00;100394.75;4986968;28;20458;-73
2023/06/19 05:07:30;;;;;;;7.38;2.15;;;;;;;20.27;100.00;100360.59;4989406;28;20532;-73
2023/06/19 05:09:55;;;;;;;7.35;2.33;;;;;;;20.30;100.00;100365.84;4990015;28;20038;-73
2023/06/19 05:12:21;;;;;;;2.50;1.88;;;;;;;20.56;100.00;100460.75;4990252;28;20069;-73
2023/06/19 05:14:46;;;;;;;3.53;1.70;;;;;;;21.00;100.00;100462.47;4989520;28;20034;-73
2023/06/19 05:17:12;;;;;;;3.03;1.60;;;;;;;21.20;100.00;100362.91;4990271;28;20042;-72
2023/06/19 05:19:37;;;;;;;8.65;2.05;;;;;;;21.71;100.00;100378.38;4978979;28;20551;-73
2023/06/19 05:22:02;;;;;;;3.78;2.00;;;;;;;20.82;100.00;100312.13;4985424;28;20447;-75
2023/06/19 05:24:28;;;;;;;3.42;2.58;;;;;;;21.18;100.00;100388.78;4988820;28;20120;-72
2023/06/19 05:26:54;;;;;;;7.13;2.88;;;;;;;22.44;100.00;100471.19;4987493;28;20042;-73
2023/06/19 05:29:19;;;;;;;3.80;2.28;;;;;;;22.26;100.00;100484.47;4970578;28;20035;-72
2023/06/19 05:31:45;;;;;;;3.03;1.83;;;;;;;22.91;100.00;100428.69;4970557;28;20035;-72
2023/06/19 05:34:10;;;;;;;2.47;1.50;;;;;;;22.25;100.00;100381.19;4970466;28;20034;-74
2023/06/19 05:36:36;;;;;;;5.05;1.80;;;;;;;22.39;100.00;100470.56;4990445;28;20497;-73
2023/06/19 05:39:01;;;;;;;2.47;1.30;;;;;;;23.05;100.00;100414.63;4988169;28;20065;-72
2023/06/19 05:41:26;;;;;;;3.25;2.15;;;;;;;23.82;100.00;100402.53;4989816;28;20041;-72
2023/06/19 05:43:52;;;;;;;2.45;1.48;;;;;;;23.08;100.00;100491.22;4989892;28;20398;-72
2023/06/19 05:46:17;;;;;;;2.88;1.38;;;;;;;22.10;100.00;100473.63;4989653;28;20038;-72
2023/06/19 05:48:43;;;;;;;3.75;1.77;;;;;;;22.80;100.00;100492.56;4989052;28;20030;-73
2023/06/19 05:51:08;;;;;;;3.30;1.80;;;;;;;23.24;100.00;100480.63;4989691;28;20104;-73
2023/06/19 05:53:34;;;;;;;2.08;1.45;;;;;;;22.55;100.00;100447.47;4987960;28;20129;-73
2023/06/19 05:55:59;;;;;;;1.95;1.10;;;;;;;23.87;100.00;100496.94;4989520;28;20737;-73
2023/06/19 05:58:25;;;;;;;2.03;1.10;;;;;;;24.54;100.00;100500.41;4987922;28;20042;-72
2023/06/19 06:00:57;;;;;;;2.55;1.48;;;;;;;24.05;100.00;100489.72;4978727;28;20042;-73
2023/06/19 06:03:24;;;;;;;1.27;0.88;;;;;;;23.45;100.00;100489.34;4989823;28;20052;-72
2023/06/19 06:05:51;;;;;;;4.90;1.38;;;;;;;22.72;100.00;100407.34;4989623;28;20061;-73
2023/06/19 06:08:17;;;;;;;7.82;1.77;;;;;;;24.47;100.00;100412.31;5020750;28;20038;-72
2023/06/19 06:10:44;;;;;;;2.55;0.93;;;;;;;24.31;100.00;100490.94;4989697;28;20043;-73
2023/06/19 06:13:09;;;;;;;9.50;1.17;;;;;;;22.39;100.00;100423.28;4987406;28;20069;-72
2023/06/19 06:15:35;;;;;;;3.00;1.70;;;;;;;22.95;100.00;100472.22;4988853;28;20030;-72
2023/06/19 06:18:03;;;;;;;2.65;1.42;;;;;;;23.12;100.00;100426.75;4988566;28;20124;-73
2023/06/19 06:20:29;;;;;;;1.98;1.67;;;;;;;22.35;100.00;100493.88;4958370;28;20049;-73
2023/06/19 06:22:54;;;;;;;3.50;1.65;;;;;;;21.81;100.00;100404.66;4989245;28;20394;-72
2023/06/19 06:25:20;;;;;;;2.25;1.08;;;;;;;22.68;100.00;100461.09;4988924;28;20517;-73
2023/06/19 06:27:47;;;;;;;2.67;1.42;;;;;;;22.44;100.00;100447.13;4988782;28;20038;-73
2023/06/19 06:30:12;;;;;;;3.92;1.83;;;;;;;21.69;100.00;100288.56;4988710;28;20042;-73
2023/06/19 06:32:38;;;;;;;2.67;1.55;;;;;;;22.65;100.00;100392.56;4988560;28;20034;-73
2023/06/19 06:35:04;;;;;;;2.00;1.05;;;;;;;22.58;100.00;100484.75;4988597;28;20038;-74
2023/06/19 06:37:30;;;;;;;1.67;1.38;;;;;;;22.47;100.00;100471.88;4988935;28;20039;-73
2023/06/19 06:39:55;;;;;;;3.15;1.27;;;;;;;22.26;100.00;100480.94;4986845;28;20121;-73
2023/06/19 06:42:21;;;;;;;6.57;1.52;;;;;;;22.47;100.00;100476.38;4988119;28;20410;-73
2023/06/19 06:44:46;;;;;;;6.03;2.70;;;;;;;22.60;100.00;100460.63;4988417;28;20053;-73
2023/06/19 06:47:12;;;;;;;2.85;1.83;;;;;;;22.34;100.00;100484.13;4986750;28;20042;-73
2023/06/19 06:49:37;;;;;;;5.65;1.60;;;;;;;23.47;100.00;100499.03;4988201;28;20100;-73
2023/06/19 06:52:04;;;;;;;2.03;1.05;;;;;;;23.03;100.00;100424.56;4991271;28;20088;-73
2023/06/19 06:54:29;;;;;;;3.33;1.75;;;;;;;23.29;100.00;100506.19;4988842;28;20053;-72
2023/06/19 06:56:59;;;;;;;1.70;0.93;;;;;;;23.24;100.00;100484.16;4986385;28;20058;-72
2023/06/19 06:59:26;;;;;;;3.58;1.45;;;;;;;22.46;100.00;100413.16;4988315;28;20034;-72
2023/06/19 07:01:52;;;;;;;2.65;1.65;;;;;;;22.38;100.00;100413.50;4987962;28;20119;-74
2023/06/19 07:04:18;;;;;;;2.15;1.15;;;;;;;23.57;100.00;100507.44;4988036;28;20042;-73
2023/06/19 07:06:44;;;;;;;4.68;1.02;;;;;;;22.94;100.00;100503.50;4986522;28;20038;-73
2023/06/19 07:09:10;;;;;;;1.98;1.25;;;;;;;23.02;100.00;100515.66;4988047;28;20030;-72
2023/06/19 07:11:35;;;;;;;2.22;1.45;;;;;;;23.33;100.00;100419.41;4987225;28;20069;-72
2023/06/19 07:14:02;;;;;;;3.05;1.45;;;;;;;24.06;100.00;100507.53;4987803;28;20529;-72
2023/06/19 07:16:28;;;;;;;7.07;1.35;;;;;;;22.99;100.00;100487.19;4986675;28;20402;-72
2023/06/19 07:18:53;;;;;;;5.03;1.85;;;;;;;22.74;100.00;100525.00;4987482;28;20038;-73
2023/06/19 07:21:19;;;;;;;2.55;1.15;;;;;;;23.61;100.00;100479.56;4987853;28;20045;-73
2023/06/19 07:23:47;;;;;;;2.90;1.23;;;;;;;22.71;100.00;100506.41;4987756;28;20046;-72
2023/06/19 07:26:12;;;;;;;2.47;1.63;;;;;;;23.23;100.00;100442.28;4987880;28;20075;-72
2023/06/19 07:28:38;;;;;;;9.32;1.52;;;;;;;23.72;100.00;100516.50;4987179;28;20030;-71
2023/06/19 07:31:04;;;;;;;1.98;1.10;;;;;;;23.57;100.00;100515.47;4986198;28;20037;-72
2023/06/19 07:33:29;;;;;;;5.00;3.42;;;;;;;22.68;100.00;100445.91;4987918;28;20038;-73
2023/06/19 07:35:55;;;;;;;2.00;0.90;;;;;;;23.28;100.00;100515.19;4987700;28;20038;-73
2023/06/19 07:38:23;;;;;;;4.00;1.23;;;;;;;23.90;100.00;100528.94;4987661;28;20072;-72
2023/06/19 07:40:49;;;;;;;1.33;0.93;;;;;;;23.11;100.00;100470.53;4987423;28;20065;-72
2023/06/19 07:43:15;;;;;;;3.95;1.75;;;;;;;23.98;100.00;100491.88;4986144;28;20030;-72
2023/06/19 07:45:40;;;;;;;2.45;1.33;;;;;;;24.29;100.00;100538.44;4986444;28;20424;-72
2023/06/19 07:48:06;;;;;;;2.10;1.10;;;;;;;24.30;100.00;100478.47;4987119;28;20030;-72
2023/06/19 07:50:32;;;;;;;2.67;1.60;;;;;;;24.67;100.00;100522.03;4987377;28;20044;-72
2023/06/19 07:52:57;;;;;;;3.00;1.67;;;;;;;24.31;100.00;100370.25;4987793;28;20038;-72
2023/06/19 07:55:23;;;;;;;2.95;1.45;;;;;;;24.67;100.00;100518.50;4987302;28;20047;-72
2023/06/19 07:57:48;;;;;;;2.97;1.25;;;;;;;24.13;100.00;100546.47;4986034;28;20061;-73
2023/06/19 08:00:14;;;;;;;1.15;0.70;;;;;;;23.32;100.00;100451.59;4987714;28;20030;-72
2023/06/19 08:02:40;;;;;;;3.25;1.70;;;;;;;23.27;100.00;100449.19;4987449;28;20050;-71
2023/06/19 08:05:10;;;;;;;2.13;1.05;;;;;;;23.53;100.00;100474.59;4986040;28;20490;-72
2023/06/19 08:07:36;;;;;;;1.65;1.13;;;;;;;23.98;100.00;100526.72;4987664;28;20546;-72
2023/06/19 08:10:03;;;;;;;1.58;0.93;;;;;;;23.90;100.00;100439.63;4987211;28;20043;-72
2023/06/19 08:12:30;;;;;;;2.00;1.10;;;;;;;24.56;100.00;100520.00;4987663;28;20125;-72
2023/06/19 08:14:55;;;;;;;4.32;1.15;;;;;;;23.95;100.00;100472.38;4985971;28;20229;-72
2023/06/19 08:17:21;;;;;;;1.60;1.13;;;;;;;23.60;100.00;100473.34;4987410;28;20852;-73
2023/06/19 08:19:47;;;;;;;1.75;0.80;;;;;;;23.68;100.00;100518.47;5018109;28;20081;-73
2023/06/19 08:22:12;;;;;;;2.03;1.10;;;;;;;24.48;100.00;100541.00;4986897;28;20076;-73
2023/06/19 08:24:41;;;;;;;1.05;0.70;;;;;;;23.48;100.00;100407.00;4987007;28;20625;-73
2023/06/19 08:27:07;;;;;;;1.85;1.08;;;;;;;23.61;100.00;100442.03;4987342;28;20034;-74
2023/06/19 08:29:33;;;;;;;7.32;1.17;;;;;;;24.23;100.00;100520.00;4987100;28;20089;-73
2023/06/19 08:31:58;;;;;;;1.88;0.65;;;;;;;25.02;100.00;100536.09;4987121;28;20065;-73
2023/06/19 08:34:24;;;;;;;2.55;1.50;;;;;;;25.10;100.00;100516.88;4988543;28;20477;-72
2023/06/19 08:36:49;;;;;;;2.13;1.10;;;;;;;25.12;100.00;100463.94;4987505;28;20057;-73
2023/06/19 08:39:15;;;;;;;2.83;1.25;;;;;;;24.83;100.00;100442.38;4986219;28;20038;-72
2023/06/19 08:41:42;;;;;;;1.75;1.15;;;;;;;25.21;100.00;100508.22;4990667;28;20109;-72
2023/06/19 08:44:08;;;;;;;3.03;1.77;;;;;;;25.72;97.57;100489.03;5022233;28;20516;-74
2023/06/19 08:46:38;;;;;;;2.70;1.08;;;;;;;25.89;96.72;100540.84;4990772;28;20093;-72
2023/06/19 08:49:06;;;;;;;3.17;1.38;;;;;;;25.24;95.14;100500.00;4990473;28;20046;-72
2023/06/19 08:51:32;;;;;;;2.20;1.33;;;;;;;25.67;93.76;100543.06;4990964;28;20035;-74
2023/06/19 08:54:06;;;;;;;4.05;1.33;;;;;;;25.13;91.84;100462.97;4991253;28;20037;-74
2023/06/19 08:56:34;;;;;;;2.53;1.33;;;;;;;25.38;96.29;100502.72;4990690;28;20058;-73
2023/06/19 08:59:16;;;;;;;1.73;0.80;;;;;;;25.54;84.44;100448.00;4990902;28;20034;-74
2023/06/19 09:01:55;;;;;;;3.22;2.00;;;;;;;25.66;86.22;100544.91;4989395;28;20062;-74
2023/06/19 09:04:24;;;;;;;2.65;1.52;;;;;;;26.33;81.11;100534.44;4990817;28;20038;-73
2023/06/19 09:06:57;;;;;;;5.25;2.15;;;;;;;25.55;80.29;100366.47;4990254;28;20401;-73
2023/06/19 09:09:24;;;;;;;6.03;1.92;;;;;;;26.57;77.98;100531.16;4989296;28;20034;-75
2023/06/19 09:12:10;;;;;;;1.70;1.30;;;;;;;27.19;70.91;100473.25;4990544;28;20038;-73
2023/06/19 09:14:45;;;;;;;1.80;0.77;;;;;;;27.25;77.40;100526.72;4988278;28;20908;-75
2023/06/19 09:17:19;;;;;;;2.70;1.30;;;;;;;25.93;79.44;100528.03;4988730;28;20837;-74
2023/06/19 09:19:48;;;;;;;1.80;1.02;;;;;;;26.79;80.39;100432.88;4989502;28;20057;-74
2023/06/19 09:22:18;;;;;;;2.20;1.27;;;;;;;27.02;81.01;100407.03;4989918;28;20034;-74
2023/06/19 09:24:44;;;;;;;1.40;1.02;;;;;;;25.80;77.84;100411.44;4988433;28;20390;-74
2023/06/19 09:27:13;;;;;;;5.45;1.58;;;;;;;26.47;86.93;100513.88;4989789;28;20034;-73
2023/06/19 09:29:43;;;;;;;2.75;1.80;;;;;;;26.35;84.45;100444.72;4988266;28;20038;-73
2023/06/19 09:32:25;;;;;;;7.45;1.95;;;;;;;27.31;84.02;100497.53;4989917;28;20030;-74
2023/06/19 09:34:58;;;;;;;2.75;1.52;;;;;;;27.13;76.81;100410.72;4991009;28;20460;-73
2023/06/19 09:37:29;;;;;;;1.95;1.30;;;;;;;27.72;76.48;100522.56;4987541;28;20038;-73
2023/06/19 09:39:57;;;;;;;3.63;2.00;;;;;;;27.62;75.58;100503.50;4988117;28;20034;-72
2023/06/19 09:42:34;;;;;;;2.60;1.75;;;;;;;27.25;76.45;100526.72;4989406;28;20116;-74
2023/06/19 09:45:07;;;;;;;4.82;1.80;;;;;;;26.89;74.88;100345.94;4988367;28;20050;-73
2023/06/19 09:47:44;;;;;;;4.20;1.98;;;;;;;27.99;74.44;100403.81;4989735;28;20030;-74
2023/06/19 09:50:12;;;;;;;2.55;1.77;;;;;;;27.83;68.45;100493.06;4989054;28;20034;-73
2023/06/19 09:52:39;;;;;;;2.03;1.20;;;;;;;27.66;71.83;100399.84;4988285;28;20130;-73
2023/06/19 09:55:06;;;;;;;2.72;1.67;;;;;;;28.16;63.59;100465.47;4989012;28;20061;-73
2023/06/19 09:57:33;;;;;;;2.90;1.58;;;;;;;26.63;76.71;100481.47;4989371;28;20038;-73
2023/06/19 10:00:12;;;;;;;4.30;2.17;;;;;;;26.94;70.86;100415.66;4989059;28;20080;-72
2023/06/19 10:02:38;;;;;;;3.33;1.75;;;;;;;29.24;67.73;100463.75;4989375;28;20034;-72
2023/06/19 10:05:04;;;;;;;3.72;1.98;;;;;;;28.27;65.38;100394.53;4988883;28;20351;-73
2023/06/19 10:07:35;;;;;;;3.08;2.20;;;;;;;29.13;66.54;100479.09;4989120;28;20034;-74
2023/06/19 10:10:04;;;;;;;3.17;2.15;;;;;;;27.62;65.60;100419.91;4988701;28;20040;-73
2023/06/19 10:12:49;;;;;;;2.80;1.83;;;;;;;28.37;67.72;100489.19;4988762;28;20562;-73
2023/06/19 10:15:19;;;;;;;2.08;1.42;;;;;;;26.78;68.02;100491.22;4988236;28;20034;-73
2023/06/19 10:17:51;;;;;;;3.20;1.98;;;;;;;26.79;75.33;100457.09;4988339;28;20026;-72
2023/06/19 10:20:37;;;;;;;3.28;2.05;;;;;;;28.08;65.22;100386.09;4988360;28;20038;-73
2023/06/19 10:23:13;;;;;;;3.42;2.33;;;;;;;28.94;62.71;100488.56;4987847;28;20034;-72
2023/06/19 10:25:41;;;;;;;13.23;2.78;;;;;;;27.76;66.38;100384.72;4988624;28;20045;-74
2023/06/19 10:28:21;;;;;;;2.97;1.80;;;;;;;28.22;68.13;100385.94;4988602;28;20042;-74
2023/06/19 10:30:53;;;;;;;2.22;1.73;;;;;;;26.59;70.05;100397.34;4987537;28;20030;-73
2023/06/19 10:33:19;;;;;;;;;;;;;;;28.23;66.44;100413.78;4988866;28;20485;-73
2023/06/19 10:35:45;;;;;;;2.25;1.15;;;;;;;27.55;64.49;100384.44;4989187;28;19924;-74
2023/06/19 10:38:16;;;;;;;3.08;1.80;;;;;;;27.61;65.91;100472.13;4988096;28;20104;-73
2023/06/19 10:40:45;;;;;;;2.45;1.88;;;;;;;28.25;61.41;100452.31;4988234;28;20029;-74
2023/06/19 10:43:19;;;;;;;2.78;1.63;;;;;;;28.39;61.02;100453.00;4988187;28;20034;-74
2023/06/19 10:45:44;;;;;;;2.95;1.88;;;;;;;26.25;68.75;100372.69;4986421;28;20438;-74
2023/06/19 10:48:09;;;;;;;4.22;1.50;;;;;;;27.05;71.24;100364.59;4987823;28;20088;-73
2023/06/19 10:50:38;;;;;;;3.17;1.83;;;;;;;28.90;67.36;100435.72;4972710;28;20038;-75
2023/06/19 10:53:06;;;;;;;3.38;1.85;;;;;;;28.45;60.54;100453.50;4986113;28;20685;-73
2023/06/19 10:55:32;;;;;;;2.72;1.88;;;;;;;27.54;65.29;100430.38;4987697;28;20062;-74
2023/06/19 10:57:58;;;;;;;2.58;1.85;;;;;;;27.30;65.24;100401.50;4988244;28;20124;-74
2023/06/19 11:00:33;;;;;;;2.53;1.65;;;;;;;27.84;60.45;100386.03;4987702;28;20038;-73
2023/06/19 11:03:00;;;;;;;4.10;2.42;;;;;;;28.24;60.35;100419.06;4987468;28;20473;-73
2023/06/19 11:05:27;;;;;;;2.97;2.17;;;;;;;28.35;62.62;100434.44;4986267;28;20042;-73
2023/06/19 11:07:57;;;;;;;2.55;1.55;;;;;;;27.61;64.28;100431.69;4987944;28;20034;-73
2023/06/19 11:10:28;;;;;;;3.08;1.85;;;;;;;28.59;62.03;100385.91;4986292;28;20038;-75
2023/06/19 11:12:56;;;;;;;2.78;1.83;;;;;;;29.40;56.50;100394.97;4987980;28;20592;-74
2023/06/19 11:15:41;;;;;;;3.42;1.38;;;;;;;29.50;53.30;100414.00;4988437;28;20062;-75
2023/06/19 11:18:08;;;;;;;1.85;1.30;;;;;;;28.34;52.68;100325.63;4987697;28;20042;-75
2023/06/19 11:20:49;;;;;;;1.92;1.38;;;;;;;29.00;55.64;100365.63;4987278;28;20137;-73